createdAt,value
2018-03-26T00:00:56.402Z,32.30
2018-03-26T00:03:23.285Z,36.40
2018-03-26T00:05:50.087Z,33.35
2018-03-26T00:08:16.900Z,35.20
2018-03-26T00:10:43.686Z,33.90
2018-03-26T00:13:10.433Z,33.05
2018-03-26T00:15:37.144Z,34.97
2018-03-26T00:18:03.980Z,33.90
2018-03-26T00:20:30.702Z,30.15
2018-03-26T00:22:57.473Z,33.28
2018-03-26T00:25:24.257Z,31.50
2018-03-26T00:27:51.058Z,32.88
2018-03-26T00:30:17.904Z,34.67
2018-03-26T00:32:44.770Z,35.13
2018-03-26T00:35:11.618Z,32.85
2018-03-26T00:37:38.452Z,31.73
2018-03-26T00:40:05.224Z,32.70
2018-03-26T00:42:31.989Z,35.67
2018-03-26T00:44:58.765Z,33.70
2018-03-26T00:47:25.551Z,33.70
2018-03-26T00:49:52.307Z,34.22
2018-03-26T00:52:19.077Z,34.60
2018-03-26T00:54:45.876Z,34.58
2018-03-26T00:57:12.639Z,35.70
2018-03-26T00:59:39.370Z,35.28
2018-03-26T01:02:06.056Z,34.47
2018-03-26T01:04:32.904Z,36.88
2018-03-26T01:06:59.646Z,32.05
2018-03-26T01:09:26.352Z,32.95
2018-03-26T01:11:53.116Z,38.50
2018-03-26T01:14:19.844Z,37.03
2018-03-26T01:16:46.597Z,36.70
2018-03-26T01:19:13.446Z,36.03
2018-03-26T01:21:40.191Z,36.17
2018-03-26T01:24:06.938Z,38.63
2018-03-26T01:26:33.653Z,36.83
2018-03-26T01:29:00.520Z,39.40
2018-03-26T01:31:27.301Z,38.72
2018-03-26T01:33:54.078Z,40.67
2018-03-26T01:36:20.878Z,40.22
2018-03-26T01:38:47.621Z,48.65
2018-03-26T01:41:14.513Z,46.37
2018-03-26T01:43:41.390Z,48.30
2018-03-26T01:46:08.224Z,44.80
2018-03-26T01:48:35.031Z,44.70
2018-03-26T01:51:01.762Z,46.25
2018-03-26T01:53:28.555Z,49.22
2018-03-26T01:55:55.385Z,52.90
2018-03-26T01:58:22.222Z,64.20
2018-03-26T02:00:48.989Z,61.05
2018-03-26T02:03:15.987Z,60.45
2018-03-26T02:05:43.092Z,61.63
2018-03-26T02:08:09.882Z,57.75
2018-03-26T02:10:36.634Z,56.22
2018-03-26T02:13:03.403Z,61.53
2018-03-26T02:15:30.125Z,60.38
2018-03-26T02:17:56.847Z,63.33
2018-03-26T02:20:23.580Z,65.90
2018-03-26T02:22:50.340Z,56.13
2018-03-26T02:25:17.063Z,58.70
2018-03-26T02:27:43.834Z,59.22
2018-03-26T02:30:10.618Z,60.58
2018-03-26T02:32:37.450Z,53.78
2018-03-26T02:35:04.194Z,55.53
2018-03-26T02:37:30.963Z,55.63
2018-03-26T02:39:57.958Z,56.10
2018-03-26T02:42:24.801Z,59.20
2018-03-26T02:44:51.639Z,61.20
2018-03-26T02:47:18.410Z,59.33
2018-03-26T02:49:45.173Z,56.83
2018-03-26T02:52:11.955Z,57.28
2018-03-26T02:54:38.775Z,57.17
2018-03-26T02:57:05.577Z,57.95
2018-03-26T02:59:32.442Z,59.28
2018-03-26T03:01:59.170Z,60.85
2018-03-26T03:04:25.935Z,57.80
2018-03-26T03:06:52.798Z,60.25
2018-03-26T03:09:19.555Z,55.63
2018-03-26T03:11:46.346Z,54.72
2018-03-26T03:14:13.106Z,55.78
2018-03-26T03:16:39.911Z,53.08
2018-03-26T03:19:06.684Z,54.88
2018-03-26T03:21:33.480Z,52.70
2018-03-26T03:24:00.325Z,53.35
2018-03-26T03:26:27.018Z,52.55
2018-03-26T03:28:53.790Z,51.37
2018-03-26T03:31:20.504Z,62.85
2018-03-26T03:33:47.191Z,58.35
2018-03-26T03:36:13.910Z,59.92
2018-03-26T03:38:40.601Z,64.55
2018-03-26T03:41:07.296Z,66.43
2018-03-26T03:43:34.010Z,66.47
2018-03-26T03:46:00.757Z,63.83
2018-03-26T03:48:27.444Z,58.30
2018-03-26T03:50:54.144Z,63.15
2018-03-26T03:53:20.852Z,64.07
2018-03-26T03:55:47.544Z,63.15
2018-03-26T03:58:14.271Z,70.35
2018-03-26T04:00:40.955Z,65.97
2018-03-26T04:03:07.645Z,60.45
2018-03-26T04:05:34.340Z,65.75
2018-03-26T04:08:01.043Z,67.30
2018-03-26T04:10:27.728Z,72.00
2018-03-26T04:12:54.436Z,60.45
2018-03-26T04:15:21.129Z,68.95
2018-03-26T04:17:47.824Z,69.30
2018-03-26T04:20:18.196Z,79.97
2018-03-26T04:22:44.904Z,80.35
2018-03-26T04:25:11.613Z,77.45
2018-03-26T04:27:38.296Z,72.22
2018-03-26T04:30:05.002Z,70.53
2018-03-26T04:32:31.700Z,84.00
2018-03-26T04:34:58.392Z,77.18
2018-03-26T04:37:25.117Z,74.25
2018-03-26T04:39:51.795Z,70.18
2018-03-26T04:42:18.481Z,65.53
2018-03-26T04:44:45.171Z,71.72
2018-03-26T04:47:11.870Z,71.85
2018-03-26T04:49:38.585Z,71.53
2018-03-26T04:52:05.313Z,73.12
2018-03-26T04:54:32.069Z,72.12
2018-03-26T04:56:58.774Z,76.68
2018-03-26T04:59:25.461Z,74.10
2018-03-26T05:01:52.158Z,75.93
2018-03-26T05:04:18.845Z,79.35
2018-03-26T05:06:45.560Z,79.57
2018-03-26T05:09:12.276Z,85.80
2018-03-26T05:11:38.983Z,79.37
2018-03-26T05:14:05.678Z,78.78
2018-03-26T05:16:32.376Z,82.35
2018-03-26T05:18:59.089Z,87.55
2018-03-26T05:21:25.776Z,80.20
2018-03-26T05:23:52.492Z,82.80
2018-03-26T05:26:19.178Z,83.87
2018-03-26T05:28:45.886Z,90.80
2018-03-26T05:31:12.643Z,84.70
2018-03-26T05:33:39.289Z,79.25
2018-03-26T05:36:06.015Z,84.03
2018-03-26T05:38:32.693Z,81.70
2018-03-26T05:40:59.386Z,86.03
2018-03-26T05:43:26.089Z,80.28
2018-03-26T05:45:52.821Z,74.90
2018-03-26T05:48:19.548Z,77.05
2018-03-26T05:50:46.242Z,80.80
2018-03-26T05:53:12.956Z,80.95
2018-03-26T05:55:39.652Z,87.88
2018-03-26T05:58:06.339Z,81.90
2018-03-26T06:00:33.048Z,85.82
2018-03-26T06:02:59.733Z,92.22
2018-03-26T06:05:26.451Z,79.00
2018-03-26T06:07:53.145Z,86.37
2018-03-26T06:10:19.826Z,81.75
2018-03-26T06:12:46.505Z,75.87
2018-03-26T06:15:13.198Z,81.32
2018-03-26T06:17:39.881Z,78.10
2018-03-26T06:20:06.593Z,74.87
2018-03-26T06:22:33.289Z,79.93
2018-03-26T06:24:59.985Z,80.62
2018-03-26T06:27:26.693Z,82.72
2018-03-26T06:29:53.388Z,89.47
2018-03-26T06:32:20.073Z,86.35
2018-03-26T06:34:46.785Z,84.97
2018-03-26T06:37:29.171Z,93.32
2018-03-26T06:39:55.908Z,91.37
2018-03-26T06:42:22.594Z,88.30
2018-03-26T06:44:49.279Z,84.50
2018-03-26T06:47:16.015Z,89.30
2018-03-26T06:49:42.716Z,87.60
2018-03-26T06:52:09.400Z,80.53
2018-03-26T06:54:36.120Z,90.53
2018-03-26T06:57:02.850Z,88.00
2018-03-26T06:59:29.541Z,87.68
2018-03-26T07:01:56.257Z,81.03
2018-03-26T07:04:22.980Z,85.40
2018-03-26T07:06:49.679Z,81.72
2018-03-26T07:09:16.385Z,74.30
2018-03-26T07:11:43.082Z,86.80
2018-03-26T07:14:09.794Z,86.37
2018-03-26T07:16:36.497Z,81.78
2018-03-26T07:19:03.209Z,73.57
2018-03-26T07:21:29.911Z,66.25
2018-03-26T07:23:56.600Z,62.43
2018-03-26T07:26:23.290Z,62.63
2018-03-26T07:28:49.979Z,62.87
2018-03-26T07:31:16.673Z,63.67
2018-03-26T07:33:43.361Z,63.13
2018-03-26T07:36:10.058Z,59.47
2018-03-26T07:38:36.791Z,62.30
2018-03-26T07:41:03.541Z,59.83
2018-03-26T07:43:30.245Z,59.60
2018-03-26T07:45:56.961Z,60.73
2018-03-26T07:48:23.726Z,64.83
2018-03-26T07:50:50.424Z,58.90
2018-03-26T07:53:17.170Z,60.40
2018-03-26T07:55:43.868Z,61.30
2018-03-26T07:58:10.582Z,61.60
2018-03-26T08:00:37.288Z,55.00
2018-03-26T08:03:03.993Z,61.53
2018-03-26T08:05:30.694Z,61.00
2018-03-26T08:07:57.400Z,65.73
2018-03-26T08:10:24.076Z,60.03
2018-03-26T08:12:50.785Z,63.43
2018-03-26T08:15:17.464Z,61.00
2018-03-26T08:17:44.145Z,57.83
2018-03-26T08:20:10.839Z,57.23
2018-03-26T08:22:37.540Z,63.07
2018-03-26T08:25:04.229Z,58.80
2018-03-26T08:27:30.928Z,52.37
2018-03-26T08:29:57.651Z,57.43
2018-03-26T08:32:24.366Z,54.93
2018-03-26T08:34:51.090Z,59.27
2018-03-26T08:37:17.794Z,59.45
2018-03-26T08:39:44.493Z,57.47
2018-03-26T08:42:11.217Z,56.72
2018-03-26T08:44:37.945Z,50.83
2018-03-26T08:47:04.654Z,52.70
2018-03-26T08:49:31.359Z,50.75
2018-03-26T08:51:58.065Z,54.30
2018-03-26T08:54:24.746Z,53.10
2018-03-26T08:56:51.458Z,53.47
2018-03-26T08:59:18.177Z,45.65
2018-03-26T09:01:44.868Z,53.43
2018-03-26T09:04:11.570Z,51.13
2018-03-26T09:06:38.280Z,48.00
2018-03-26T09:09:04.966Z,53.97
2018-03-26T09:11:31.713Z,42.70
2018-03-26T09:13:58.406Z,44.10
2018-03-26T09:16:25.104Z,42.10
2018-03-26T09:18:51.833Z,47.00
2018-03-26T09:21:18.549Z,41.40
2018-03-26T09:23:45.249Z,38.00
2018-03-26T09:26:11.957Z,37.27
2018-03-26T09:28:38.663Z,44.13
2018-03-26T09:31:05.355Z,38.70
2018-03-26T09:33:32.042Z,40.33
2018-03-26T09:35:58.738Z,44.47
2018-03-26T09:38:25.442Z,39.80
2018-03-26T09:40:52.187Z,38.50
2018-03-26T09:43:18.872Z,38.77
2018-03-26T09:45:45.593Z,39.63
2018-03-26T09:48:12.284Z,39.30
2018-03-26T09:50:39.000Z,37.70
2018-03-26T09:53:05.706Z,40.63
2018-03-26T09:55:32.413Z,36.60
2018-03-26T09:57:59.102Z,39.40
2018-03-26T10:00:31.506Z,43.27
2018-03-26T10:02:58.219Z,49.17
2018-03-26T10:05:24.969Z,52.73
2018-03-26T10:07:51.659Z,45.10
2018-03-26T10:10:18.417Z,44.57
2018-03-26T10:12:45.104Z,46.43
2018-03-26T10:15:11.790Z,47.20
2018-03-26T10:17:38.472Z,51.53
2018-03-26T10:20:05.217Z,47.47
2018-03-26T10:22:31.949Z,53.50
2018-03-26T10:24:58.669Z,51.53
2018-03-26T10:30:09.380Z,44.03
2018-03-26T10:32:36.117Z,40.10
2018-03-26T10:35:02.831Z,42.80
2018-03-26T10:37:29.542Z,47.20
2018-03-26T10:39:56.234Z,47.37
2018-03-26T10:42:22.939Z,37.33
2018-03-26T10:44:49.639Z,33.40
2018-03-26T10:47:16.350Z,41.85
2018-03-26T10:49:43.038Z,39.97
2018-03-26T10:52:09.755Z,44.22
2018-03-26T10:54:36.455Z,41.63
2018-03-26T10:57:03.203Z,39.65
2018-03-26T10:59:29.958Z,40.78
2018-03-26T11:01:56.666Z,40.60
2018-03-26T11:04:23.370Z,39.25
2018-03-26T11:06:50.096Z,40.95
2018-03-26T11:09:16.793Z,38.10
2018-03-26T11:11:43.491Z,30.65
2018-03-26T11:14:10.181Z,30.40
2018-03-26T11:16:36.937Z,29.95
2018-03-26T11:19:03.644Z,35.95
2018-03-26T11:21:30.354Z,31.33
2018-03-26T11:23:57.055Z,36.53
2018-03-26T11:26:23.766Z,35.92
2018-03-26T11:28:50.492Z,35.42
2018-03-26T11:31:17.188Z,32.47
2018-03-26T11:33:43.923Z,30.05
2018-03-26T11:36:10.672Z,29.48
2018-03-26T11:38:37.451Z,34.55
2018-03-26T11:41:04.247Z,31.85
2018-03-26T11:43:30.996Z,27.80
2018-03-26T11:45:57.788Z,32.88
2018-03-26T11:48:24.553Z,31.73
2018-03-26T11:50:51.316Z,34.85
2018-03-26T11:53:18.259Z,29.65
2018-03-26T11:55:44.995Z,27.25
2018-03-26T11:58:11.810Z,30.12
2018-03-26T12:00:38.540Z,34.92
2018-03-26T12:03:05.224Z,32.47
2018-03-26T12:05:31.921Z,31.98
2018-03-26T12:07:58.607Z,32.83
2018-03-26T12:10:25.317Z,28.70
2018-03-26T12:12:52.019Z,27.42
2018-03-26T12:15:18.718Z,29.10
2018-03-26T12:17:45.501Z,32.95
2018-03-26T12:20:18.094Z,31.75
2018-03-26T12:22:44.905Z,31.65
2018-03-26T12:25:14.402Z,27.35
2018-03-26T12:27:47.099Z,27.92
2018-03-26T12:30:24.661Z,25.88
2018-03-26T12:32:51.388Z,27.50
2018-03-26T12:35:23.867Z,25.17
2018-03-26T12:37:50.681Z,23.95
2018-03-26T12:40:23.420Z,24.02
2018-03-26T12:42:50.196Z,19.45
2018-03-26T12:45:22.906Z,26.08
2018-03-26T12:47:49.848Z,26.92
2018-03-26T12:50:16.603Z,22.42
2018-03-26T12:52:47.290Z,19.52
2018-03-26T12:55:14.058Z,17.60
2018-03-26T12:57:46.762Z,19.30
2018-03-26T13:00:13.579Z,21.23
2018-03-26T13:02:40.292Z,18.85
2018-03-26T13:05:06.982Z,18.67
2018-03-26T13:07:33.669Z,16.85
2018-03-26T13:10:00.381Z,20.48
2018-03-26T13:12:27.068Z,18.05
2018-03-26T13:14:53.772Z,18.55
2018-03-26T13:17:20.462Z,18.50
2018-03-26T13:19:47.259Z,19.55
2018-03-26T13:22:13.989Z,21.27
2018-03-26T13:24:40.694Z,19.48
2018-03-26T13:27:07.382Z,21.87
2018-03-26T13:29:34.069Z,21.45
2018-03-26T13:32:00.762Z,20.55
2018-03-26T13:34:27.473Z,20.58
2018-03-26T13:36:54.157Z,18.62
2018-03-26T13:39:20.847Z,18.90
2018-03-26T13:41:47.554Z,17.45
2018-03-26T13:44:14.274Z,18.58
2018-03-26T13:46:40.968Z,17.35
2018-03-26T13:49:07.714Z,20.85
2018-03-26T13:51:34.389Z,27.85
2018-03-26T13:54:01.084Z,25.55
2018-03-26T13:56:27.770Z,16.30
2018-03-26T13:58:54.464Z,17.90
2018-03-26T14:01:21.163Z,18.15
2018-03-26T14:03:47.864Z,17.67
2018-03-26T14:06:14.564Z,16.92
2018-03-26T14:08:47.050Z,18.37
2018-03-26T14:11:19.699Z,21.27
2018-03-26T14:13:52.372Z,16.98
2018-03-26T14:16:24.866Z,20.02
2018-03-26T14:18:51.567Z,20.00
2018-03-26T14:21:18.258Z,14.02
2018-03-26T14:23:44.957Z,16.83
2018-03-26T14:26:11.660Z,17.70
2018-03-26T14:28:38.363Z,18.92
2018-03-26T14:31:05.072Z,17.20
2018-03-26T14:33:31.825Z,18.52
2018-03-26T14:35:58.566Z,20.10
2018-03-26T14:38:25.345Z,18.55
2018-03-26T14:40:52.023Z,14.07
2018-03-26T14:43:18.704Z,18.85
2018-03-26T14:45:45.410Z,15.43
2018-03-26T14:48:12.146Z,14.13
2018-03-26T14:50:38.840Z,16.45
2018-03-26T14:53:05.536Z,14.07
2018-03-26T14:55:32.266Z,17.17
2018-03-26T14:57:58.970Z,15.90
2018-03-26T15:00:25.707Z,16.50
2018-03-26T15:02:52.455Z,15.73
2018-03-26T15:05:19.144Z,12.73
2018-03-26T15:07:45.864Z,12.50
2018-03-26T15:10:12.567Z,14.13
2018-03-26T15:12:39.276Z,12.40
2018-03-26T15:15:05.968Z,11.70
2018-03-26T15:17:32.764Z,14.50
2018-03-26T15:19:59.458Z,12.60
2018-03-26T15:22:26.190Z,13.32
2018-03-26T15:24:52.873Z,12.85
2018-03-26T15:27:19.591Z,12.55
2018-03-26T15:29:46.290Z,14.10
2018-03-26T15:32:13.015Z,13.52
2018-03-26T15:34:39.705Z,11.70
2018-03-26T15:37:06.432Z,12.80
2018-03-26T15:39:33.141Z,12.20
2018-03-26T15:41:59.839Z,13.57
2018-03-26T15:44:26.533Z,15.25
2018-03-26T15:46:53.249Z,14.23
2018-03-26T15:49:19.942Z,13.48
2018-03-26T15:51:46.661Z,15.32
2018-03-26T15:54:13.353Z,12.75
2018-03-26T15:56:40.048Z,13.57
2018-03-26T15:59:06.755Z,15.02
2018-03-26T16:01:33.481Z,16.80
2018-03-26T16:04:00.173Z,16.00
2018-03-26T16:06:26.862Z,15.95
2018-03-26T16:08:53.588Z,18.90
2018-03-26T16:11:20.311Z,15.77
2018-03-26T16:13:47.026Z,15.18
2018-03-26T16:16:13.742Z,16.50
2018-03-26T16:18:40.443Z,15.95
2018-03-26T16:21:07.159Z,14.38
2018-03-26T16:23:33.846Z,18.50
2018-03-26T16:26:00.530Z,19.52
2018-03-26T16:28:27.220Z,17.87
2018-03-26T16:30:53.955Z,18.77
2018-03-26T16:33:20.665Z,21.92
2018-03-26T16:35:47.401Z,16.73
2018-03-26T16:38:14.116Z,17.67
2018-03-26T16:40:40.857Z,18.83
2018-03-26T16:43:07.557Z,14.87
2018-03-26T16:45:34.254Z,16.80
2018-03-26T16:48:00.977Z,17.87
2018-03-26T16:50:27.665Z,17.27
2018-03-26T16:52:54.358Z,18.33
2018-03-26T16:55:21.077Z,15.82
2018-03-26T16:57:47.761Z,20.00
2018-03-26T17:00:14.462Z,22.48
2018-03-26T17:02:41.165Z,18.50
2018-03-26T17:05:07.866Z,17.45
2018-03-26T17:07:34.554Z,20.20
2018-03-26T17:10:01.247Z,15.40
2018-03-26T17:12:27.968Z,13.35
2018-03-26T17:14:54.652Z,21.62
2018-03-26T17:17:21.357Z,15.32
2018-03-26T17:19:48.081Z,12.93
2018-03-26T17:22:14.761Z,16.05
2018-03-26T17:24:41.454Z,16.77
2018-03-26T17:27:08.202Z,21.92
2018-03-26T17:29:34.897Z,17.67
2018-03-26T17:32:01.593Z,17.05
2018-03-26T17:34:28.299Z,19.65
2018-03-26T17:36:54.986Z,17.52
2018-03-26T17:39:21.903Z,16.50
2018-03-26T17:41:48.605Z,18.65
2018-03-26T17:44:15.329Z,18.85
2018-03-26T17:46:42.069Z,16.58
2018-03-26T17:49:08.797Z,15.00
2018-03-26T17:51:35.590Z,16.33
2018-03-26T17:54:02.335Z,16.35
2018-03-26T17:56:29.027Z,15.63
2018-03-26T17:58:55.723Z,15.35
2018-03-26T18:01:22.442Z,14.25
2018-03-26T18:03:49.133Z,15.82
2018-03-26T18:06:15.861Z,21.25
2018-03-26T18:08:43.525Z,17.90
2018-03-26T18:11:10.235Z,19.70
2018-03-26T18:13:36.943Z,17.65
2018-03-26T18:16:03.648Z,16.02
2018-03-26T18:18:30.346Z,15.55
2018-03-26T18:20:57.081Z,18.35
2018-03-26T18:23:23.843Z,19.55
2018-03-26T18:25:50.553Z,18.70
2018-03-26T18:28:17.267Z,22.17
2018-03-26T18:30:43.992Z,20.00
2018-03-26T18:33:10.731Z,19.92
2018-03-26T18:35:37.501Z,22.02
2018-03-26T18:38:04.201Z,18.87
2018-03-26T18:40:30.894Z,16.25
2018-03-26T18:42:57.590Z,16.00
2018-03-26T18:45:24.406Z,17.73
2018-03-26T18:47:51.113Z,17.58
2018-03-26T18:50:17.799Z,16.40
2018-03-26T18:52:44.505Z,20.05
2018-03-26T18:55:11.198Z,21.40
2018-03-26T18:57:37.893Z,19.20
2018-03-26T19:00:04.607Z,21.17
2018-03-26T19:02:31.338Z,22.48
2018-03-26T19:04:58.064Z,17.20
2018-03-26T19:07:24.776Z,19.80
2018-03-26T19:09:51.498Z,22.20
2018-03-26T19:12:18.193Z,25.85
2018-03-26T19:14:44.888Z,21.08
2018-03-26T19:17:11.590Z,18.77
2018-03-26T19:19:38.317Z,24.70
2018-03-26T19:22:05.014Z,24.40
2018-03-26T19:24:31.728Z,27.17
2018-03-26T19:26:58.431Z,24.40
2018-03-26T19:29:25.127Z,21.40
2018-03-26T19:31:51.839Z,22.20
2018-03-26T19:34:18.549Z,26.83
2018-03-26T19:36:45.288Z,28.20
2018-03-26T19:39:11.980Z,28.58
2018-03-26T19:41:38.718Z,28.52
2018-03-26T19:44:05.410Z,26.70
2018-03-26T19:46:32.118Z,30.55
2018-03-26T19:48:58.825Z,23.38
2018-03-26T19:51:25.541Z,27.50
2018-03-26T19:53:52.235Z,27.23
2018-03-26T19:56:18.927Z,33.67
2018-03-26T19:58:45.655Z,30.60
2018-03-26T20:01:12.342Z,30.10
2018-03-26T20:03:39.084Z,35.22
2018-03-26T20:06:05.793Z,28.08
2018-03-26T20:08:32.498Z,32.60
2018-03-26T20:10:59.198Z,32.42
2018-03-26T20:13:25.912Z,31.08
2018-03-26T20:15:52.682Z,32.78
2018-03-26T20:18:19.417Z,35.08
2018-03-26T20:20:46.155Z,32.83
2018-03-26T20:23:12.882Z,33.40
2018-03-26T20:25:39.612Z,33.08
2018-03-26T20:28:06.310Z,36.58
2018-03-26T20:30:33.013Z,38.10
2018-03-26T20:32:59.767Z,37.03
2018-03-26T20:35:26.477Z,33.38
2018-03-26T20:37:53.198Z,36.28
2018-03-26T20:40:19.904Z,28.42
2018-03-26T20:42:46.594Z,35.55
2018-03-26T20:45:13.299Z,36.40
2018-03-26T20:47:40.020Z,32.40
2018-03-26T20:50:06.727Z,35.50
2018-03-26T20:52:33.424Z,32.67
2018-03-26T20:55:00.126Z,36.63
2018-03-26T20:57:26.843Z,34.38
2018-03-26T20:59:53.536Z,34.22
2018-03-26T21:02:20.218Z,39.15
2018-03-26T21:04:46.918Z,35.50
2018-03-26T21:07:13.646Z,34.03
2018-03-26T21:09:40.363Z,38.58
2018-03-26T21:12:07.085Z,35.15
2018-03-26T21:14:33.810Z,39.47
2018-03-26T21:17:00.518Z,39.33
2018-03-26T21:19:27.222Z,35.33
2018-03-26T21:21:53.912Z,33.85
2018-03-26T21:24:20.598Z,35.85
2018-03-26T21:26:47.310Z,39.45
2018-03-26T21:29:14.010Z,35.83
2018-03-26T21:31:40.770Z,32.38
2018-03-26T21:34:07.470Z,36.00
2018-03-26T21:36:34.161Z,46.05
2018-03-26T21:39:00.852Z,36.10
2018-03-26T21:41:27.538Z,37.78
2018-03-26T21:43:54.255Z,38.58
2018-03-26T21:46:20.949Z,33.38
2018-03-26T21:48:47.667Z,39.85
2018-03-26T21:51:14.371Z,40.75
2018-03-26T21:53:41.088Z,38.83
2018-03-26T21:56:07.797Z,37.50
2018-03-26T21:58:34.497Z,39.38
2018-03-26T22:01:01.199Z,37.90
2018-03-26T22:03:27.891Z,37.33
2018-03-26T22:05:54.592Z,40.03
2018-03-26T22:08:21.305Z,37.05
2018-03-26T22:10:48.014Z,39.03
2018-03-26T22:13:14.774Z,37.33
2018-03-26T22:15:41.491Z,40.83
2018-03-26T22:18:08.187Z,44.95
2018-03-26T22:20:34.915Z,43.47
2018-03-26T22:23:01.595Z,40.45
2018-03-26T22:25:28.304Z,47.67
2018-03-26T22:27:55.003Z,43.50
2018-03-26T22:30:21.759Z,42.97
2018-03-26T22:32:48.460Z,39.58
2018-03-26T22:35:15.140Z,36.90
2018-03-26T22:37:41.855Z,44.33
2018-03-26T22:40:08.556Z,40.15
2018-03-26T22:42:35.280Z,38.38
2018-03-26T22:45:01.990Z,34.40
2018-03-26T22:47:28.692Z,39.53
2018-03-26T22:49:55.415Z,40.12
2018-03-26T22:52:22.116Z,39.75
2018-03-26T22:54:48.805Z,40.90
2018-03-26T22:57:16.339Z,40.45
2018-03-26T22:59:43.090Z,32.67
2018-03-26T23:02:09.786Z,34.75
2018-03-26T23:04:36.480Z,33.47
2018-03-26T23:07:03.183Z,35.15
2018-03-26T23:09:29.889Z,33.25
2018-03-26T23:11:56.594Z,35.88
2018-03-26T23:14:23.344Z,41.53
2018-03-26T23:16:50.048Z,40.42
2018-03-26T23:19:16.776Z,34.08
2018-03-26T23:21:43.456Z,42.17
2018-03-26T23:24:10.153Z,39.97
2018-03-26T23:26:36.838Z,36.03
2018-03-26T23:29:03.579Z,37.30
2018-03-26T23:31:30.266Z,37.30
2018-03-26T23:33:56.956Z,32.17
2018-03-26T23:36:23.706Z,32.38
2018-03-26T23:38:50.415Z,33.33
2018-03-26T23:41:17.146Z,33.47
2018-03-26T23:43:43.857Z,35.15
2018-03-26T23:46:10.549Z,33.60
2018-03-26T23:48:37.264Z,32.65
2018-03-26T23:51:03.967Z,32.17
2018-03-26T23:53:30.698Z,34.17
2018-03-26T23:55:57.398Z,35.72
2018-03-26T23:58:24.088Z,31.77
